sensor_id;sensor_type;location;lat;lon;timestamp;pressure;altitude;pressure_sealevel;temperature;humidity
65880;BME280;52661;51.364;6.054;2023-04-21T00:00:52;101050.47;;;8.24;100.00
65880;BME280;52661;51.364;6.054;2023-04-21T00:03:18;101037.59;;;8.18;100.00
65880;BME280;52661;51.364;6.054;2023-04-21T00:05:44;101034.09;;;8.14;100.00
65880;BME280;52661;51.364;6.054;2023-04-21T00:08:09;101033.72;;;8.15;100.00
65880;BME280;52661;51.364;6.054;2023-04-21T00:10:35;101038.03;;;8.20;100.00
65880;BME280;52661;51.364;6.054;2023-04-21T00:13:00;101031.00;;;8.15;100.00
65880;BME280;52661;51.364;6.054;2023-04-21T00:15:25;101039.91;;;8.16;100.00
65880;BME280;52661;51.364;6.054;2023-04-21T00:17:50;101039.22;;;8.22;100.00
65880;BME280;52661;51.364;6.054;2023-04-21T00:20:16;101029.88;;;8.16;100.00
65880;BME280;52661;51.364;6.054;2023-04-21T00:22:41;101031.44;;;8.17;100.00
65880;BME280;52661;51.364;6.054;2023-04-21T00:25:07;101038.72;;;8.13;100.00
65880;BME280;52661;51.364;6.054;2023-04-21T00:27:32;101037.59;;;8.18;100.00
65880;BME280;52661;51.364;6.054;2023-04-21T00:29:58;101035.22;;;8.13;100.00
65880;BME280;52661;51.364;6.054;2023-04-21T00:32:23;101039.81;;;8.09;100.00
65880;BME280;52661;51.364;6.054;2023-04-21T00:34:48;101027.91;;;8.13;100.00
65880;BME280;52661;51.364;6.054;2023-04-21T00:37:13;101035.28;;;8.16;100.00
65880;BME280;52661;51.364;6.054;2023-04-21T00:39:39;101033.78;;;8.19;100.00
65880;BME280;52661;51.364;6.054;2023-04-21T00:42:04;101017.44;;;8.12;100.00
65880;BME280;52661;51.364;6.054;2023-04-21T00:44:29;101020.16;;;8.12;100.00
65880;BME280;52661;51.364;6.054;2023-04-21T00:46:55;101021.28;;;8.11;100.00
65880;BME280;52661;51.364;6.054;2023-04-21T00:49:21;101011.19;;;8.08;100.00
65880;BME280;52661;51.364;6.054;2023-04-21T00:51:48;101011.88;;;8.01;100.00
65880;BME280;52661;51.364;6.054;2023-04-21T00:54:14;101014.28;;;8.06;100.00
65880;BME280;52661;51.364;6.054;2023-04-21T00:56:41;101009.97;;;8.02;100.00
65880;BME280;52661;51.364;6.054;2023-04-21T00:59:07;101001.97;;;8.09;100.00
65880;BME280;52661;51.364;6.054;2023-04-21T01:01:32;101008.56;;;8.11;100.00
65880;BME280;52661;51.364;6.054;2023-04-21T01:04:03;101005.28;;;7.99;100.00
65880;BME280;52661;51.364;6.054;2023-04-21T01:06:30;101006.13;;;8.03;100.00
65880;BME280;52661;51.364;6.054;2023-04-21T01:08:56;101004.50;;;7.98;100.00
65880;BME280;52661;51.364;6.054;2023-04-21T01:11:21;101003.38;;;7.99;100.00
65880;BME280;52661;51.364;6.054;2023-04-21T01:13:47;100995.72;;;8.05;100.00
65880;BME280;52661;51.364;6.054;2023-04-21T01:16:16;100990.31;;;8.05;100.00
65880;BME280;52661;51.364;6.054;2023-04-21T01:18:43;100991.19;;;8.12;100.00
65880;BME280;52661;51.364;6.054;2023-04-21T01:21:09;101000.44;;;8.11;100.00
65880;BME280;52661;51.364;6.054;2023-04-21T01:23:35;100990.78;;;8.10;100.00
65880;BME280;52661;51.364;6.054;2023-04-21T01:26:00;100998.16;;;8.13;100.00
65880;BME280;52661;51.364;6.054;2023-04-21T01:28:25;100998.22;;;8.17;100.00
65880;BME280;52661;51.364;6.054;2023-04-21T01:30:51;100988.63;;;8.23;100.00
65880;BME280;52661;51.364;6.054;2023-04-21T01:33:17;100981.72;;;8.25;100.00
65880;BME280;52661;51.364;6.054;2023-04-21T01:35:43;100974.25;;;8.15;100.00
65880;BME280;52661;51.364;6.054;2023-04-21T01:38:09;100974.97;;;8.12;100.00
65880;BME280;52661;51.364;6.054;2023-04-21T01:40:34;100978.06;;;8.14;100.00
65880;BME280;52661;51.364;6.054;2023-04-21T01:43:00;100966.03;;;8.08;100.00
65880;BME280;52661;51.364;6.054;2023-04-21T01:45:25;100980.34;;;8.09;100.00
65880;BME280;52661;51.364;6.054;2023-04-21T01:47:51;100971.50;;;8.12;100.00
65880;BME280;52661;51.364;6.054;2023-04-21T01:50:16;100975.28;;;8.07;100.00
65880;BME280;52661;51.364;6.054;2023-04-21T01:52:42;100968.34;;;8.06;100.00
65880;BME280;52661;51.364;6.054;2023-04-21T01:55:08;100963.69;;;8.07;100.00
65880;BME280;52661;51.364;6.054;2023-04-21T01:57:33;100959.78;;;8.04;100.00
65880;BME280;52661;51.364;6.054;2023-04-21T01:59:58;100956.69;;;8.02;100.00
65880;BME280;52661;51.364;6.054;2023-04-21T02:02:24;100959.00;;;8.04;100.00
65880;BME280;52661;51.364;6.054;2023-04-21T02:04:49;100951.28;;;8.02;100.00
65880;BME280;52661;51.364;6.054;2023-04-21T02:07:14;100959.06;;;8.07;100.00
65880;BME280;52661;51.364;6.054;2023-04-21T02:09:40;100960.53;;;8.01;100.00
65880;BME280;52661;51.364;6.054;2023-04-21T02:12:05;100967.00;;;7.97;100.00
65880;BME280;52661;51.364;6.054;2023-04-21T02:14:30;100961.56;;;7.93;100.00
65880;BME280;52661;51.364;6.054;2023-04-21T02:16:56;100965.53;;;7.99;100.00
65880;BME280;52661;51.364;6.054;2023-04-21T02:19:21;100969.66;;;7.93;100.00
65880;BME280;52661;51.364;6.054;2023-04-21T02:21:47;100965.44;;;7.92;100.00
65880;BME280;52661;51.364;6.054;2023-04-21T02:24:12;100965.84;;;7.94;100.00
65880;BME280;52661;51.364;6.054;2023-04-21T02:26:37;100966.72;;;8.02;100.00
65880;BME280;52661;51.364;6.054;2023-04-21T02:29:03;100966.03;;;7.82;100.00
65880;BME280;52661;51.364;6.054;2023-04-21T02:31:28;100966.81;;;7.82;100.00
65880;BME280;52661;51.364;6.054;2023-04-21T02:33:53;100966.34;;;7.77;100.00
65880;BME280;52661;51.364;6.054;2023-04-21T02:36:20;100964.78;;;7.76;100.00
65880;BME280;52661;51.364;6.054;2023-04-21T02:38:45;100967.66;;;7.64;100.00
65880;BME280;52661;51.364;6.054;2023-04-21T02:41:10;100961.19;;;7.68;100.00
65880;BME280;52661;51.364;6.054;2023-04-21T02:43:36;100957.31;;;7.66;100.00
65880;BME280;52661;51.364;6.054;2023-04-21T02:46:08;100959.69;;;7.71;100.00
65880;BME280;52661;51.364;6.054;2023-04-21T02:48:34;100949.25;;;7.69;100.00
65880;BME280;52661;51.364;6.054;2023-04-21T02:51:00;100949.59;;;7.68;100.00
65880;BME280;52661;51.364;6.054;2023-04-21T02:53:25;100948.41;;;7.65;100.00
65880;BME280;52661;51.364;6.054;2023-04-21T02:55:50;100951.16;;;7.69;100.00
65880;BME280;52661;51.364;6.054;2023-04-21T02:58:16;100949.59;;;7.68;100.00
65880;BME280;52661;51.364;6.054;2023-04-21T03:00:41;100945.03;;;7.72;100.00
65880;BME280;52661;51.364;6.054;2023-04-21T03:03:06;100946.59;;;7.73;100.00
65880;BME280;52661;51.364;6.054;2023-04-21T03:05:32;100950.31;;;7.65;100.00
65880;BME280;52661;51.364;6.054;2023-04-21T03:07:57;100944.13;;;7.64;100.00
65880;BME280;52661;51.364;6.054;2023-04-21T03:10:23;100939.47;;;7.61;100.00
65880;BME280;52661;51.364;6.054;2023-04-21T03:12:48;100938.78;;;7.68;100.00
65880;BME280;52661;51.364;6.054;2023-04-21T03:15:14;100935.69;;;7.66;100.00
65880;BME280;52661;51.364;6.054;2023-04-21T03:17:41;100938.63;;;7.57;100.00
65880;BME280;52661;51.364;6.054;2023-04-21T03:20:07;100931.88;;;7.44;100.00
65880;BME280;52661;51.364;6.054;2023-04-21T03:22:37;100925.56;;;7.36;100.00
65880;BME280;52661;51.364;6.054;2023-04-21T03:25:03;100923.94;;;7.32;100.00
65880;BME280;52661;51.364;6.054;2023-04-21T03:27:29;100925.56;;;7.36;100.00
65880;BME280;52661;51.364;6.054;2023-04-21T03:29:54;100921.97;;;7.29;100.00
65880;BME280;52661;51.364;6.054;2023-04-21T03:32:20;100932.25;;;7.20;100.00
65880;BME280;52661;51.364;6.054;2023-04-21T03:34:46;100936.03;;;7.15;100.00
65880;BME280;52661;51.364;6.054;2023-04-21T03:37:11;100937.16;;;7.14;100.00
65880;BME280;52661;51.364;6.054;2023-04-21T03:39:37;100927.97;;;7.19;100.00
65880;BME280;52661;51.364;6.054;2023-04-21T03:42:02;100934.56;;;7.21;100.00
65880;BME280;52661;51.364;6.054;2023-04-21T03:44:29;100932.94;;;7.17;100.00
65880;BME280;52661;51.364;6.054;2023-04-21T03:46:55;100933.19;;;7.08;100.00
65880;BME280;52661;51.364;6.054;2023-04-21T03:49:20;100935.00;;;7.23;100.00
65880;BME280;52661;51.364;6.054;2023-04-21T03:51:45;100934.22;;;7.23;100.00
65880;BME280;52661;51.364;6.054;2023-04-21T03:54:11;100932.81;;;7.10;100.00
65880;BME280;52661;51.364;6.054;2023-04-21T03:56:37;100937.09;;;7.11;100.00
65880;BME280;52661;51.364;6.054;2023-04-21T03:59:02;100936.69;;;7.09;100.00
65880;BME280;52661;51.364;6.054;2023-04-21T04:01:27;100933.19;;;7.08;100.00
65880;BME280;52661;51.364;6.054;2023-04-21T04:03:53;100933.84;;;7.02;100.00
65880;BME280;52661;51.364;6.054;2023-04-21T04:06:18;100932.69;;;7.03;100.00
65880;BME280;52661;51.364;6.054;2023-04-21T04:08:43;100934.13;;;6.97;100.00
65880;BME280;52661;51.364;6.054;2023-04-21T04:11:09;100940.66;;;6.96;100.00
65880;BME280;52661;51.364;6.054;2023-04-21T04:13:34;100928.88;;;7.04;100.00
65880;BME280;52661;51.364;6.054;2023-04-21T04:15:59;100940.00;;;7.02;100.00
65880;BME280;52661;51.364;6.054;2023-04-21T04:18:25;100931.44;;;6.97;100.00
65880;BME280;52661;51.364;6.054;2023-04-21T04:20:50;100935.78;;;7.01;100.00
65880;BME280;52661;51.364;6.054;2023-04-21T04:23:15;100934.19;;;7.00;100.00
65880;BME280;52661;51.364;6.054;2023-04-21T04:25:41;100939.19;;;6.98;100.00
65880;BME280;52661;51.364;6.054;2023-04-21T04:28:07;100941.16;;;7.01;100.00
65880;BME280;52661;51.364;6.054;2023-04-21T04:30:33;100935.47;;;7.06;100.00
65880;BME280;52661;51.364;6.054;2023-04-21T04:32:59;100942.44;;;7.07;100.00
65880;BME280;52661;51.364;6.054;2023-04-21T04:35:25;100928.88;;;7.04;100.00
65880;BME280;52661;51.364;6.054;2023-04-21T04:37:50;100925.03;;;7.05;100.00
65880;BME280;52661;51.364;6.054;2023-04-21T04:40:16;100930.63;;;7.15;100.00
65880;BME280;52661;51.364;6.054;2023-04-21T04:42:41;100932.59;;;7.18;100.00
65880;BME280;52661;51.364;6.054;2023-04-21T04:45:07;100936.88;;;7.19;100.00
65880;BME280;52661;51.364;6.054;2023-04-21T04:47:34;100936.88;;;7.19;100.00
65880;BME280;52661;51.364;6.054;2023-04-21T04:49:59;100936.44;;;7.17;100.00
65880;BME280;52661;51.364;6.054;2023-04-21T04:52:24;100935.69;;;7.20;100.00
65880;BME280;52661;51.364;6.054;2023-04-21T04:54:50;100936.53;;;7.24;100.00
65880;BME280;52661;51.364;6.054;2023-04-21T04:57:15;100942.72;;;7.25;100.00
65880;BME280;52661;51.364;6.054;2023-04-21T04:59:41;100950.88;;;7.28;100.00
65880;BME280;52661;51.364;6.054;2023-04-21T05:02:06;100940.94;;;7.32;100.00
65880;BME280;52661;51.364;6.054;2023-04-21T05:04:33;100946.78;;;7.38;100.00
65880;BME280;52661;51.364;6.054;2023-04-21T05:06:58;100945.94;;;7.30;100.00
65880;BME280;52661;51.364;6.054;2023-04-21T05:09:23;100948.19;;;7.28;100.00
65880;BME280;52661;51.364;6.054;2023-04-21T05:11:48;100948.56;;;7.27;100.00
65880;BME280;52661;51.364;6.054;2023-04-21T05:14:14;100944.28;;;7.26;100.00
65880;BME280;52661;51.364;6.054;2023-04-21T05:16:39;100944.28;;;7.26;100.00
65880;BME280;52661;51.364;6.054;2023-04-21T05:19:05;100947.84;;;7.30;100.00
65880;BME280;52661;51.364;6.054;2023-04-21T05:21:30;100944.81;;;7.35;100.00
65880;BME280;52661;51.364;6.054;2023-04-21T05:23:58;100943.75;;;7.39;100.00
65880;BME280;52661;51.364;6.054;2023-04-21T05:26:24;100943.50;;;7.48;100.00
65880;BME280;52661;51.364;6.054;2023-04-21T05:28:51;100949.38;;;7.54;100.00
65880;BME280;52661;51.364;6.054;2023-04-21T05:31:16;100950.94;;;7.55;100.00
65880;BME280;52661;51.364;6.054;2023-04-21T05:33:41;100955.09;;;7.49;100.00
65880;BME280;52661;51.364;6.054;2023-04-21T05:36:08;100954.72;;;7.50;100.00
65880;BME280;52661;51.364;6.054;2023-04-21T05:38:34;100943.88;;;7.47;100.00
65880;BME280;52661;51.364;6.054;2023-04-21T05:40:59;100948.13;;;7.48;100.00
65880;BME280;52661;51.364;6.054;2023-04-21T05:43:25;100954.00;;;7.53;100.00
65880;BME280;52661;51.364;6.054;2023-04-21T05:45:50;100961.38;;;7.56;100.00
65880;BME280;52661;51.364;6.054;2023-04-21T05:48:16;100956.75;;;7.57;100.00
65880;BME280;52661;51.364;6.054;2023-04-21T05:50:41;100951.00;;;7.58;100.00
65880;BME280;52661;51.364;6.054;2023-04-21T05:53:06;100960.34;;;7.64;100.00
65880;BME280;52661;51.364;6.054;2023-04-21T05:55:35;100958.09;;;7.66;100.00
65880;BME280;52661;51.364;6.054;2023-04-21T05:58:01;100958.13;;;7.70;100.00
65880;BME280;52661;51.364;6.054;2023-04-21T06:00:26;100953.47;;;7.67;100.00
65880;BME280;52661;51.364;6.054;2023-04-21T06:02:51;100956.88;;;7.64;100.00
65880;BME280;52661;51.364;6.054;2023-04-21T06:05:17;100958.78;;;7.63;100.00
65880;BME280;52661;51.364;6.054;2023-04-21T06:07:43;100955.06;;;7.71;100.00
65880;BME280;52661;51.364;6.054;2023-04-21T06:10:09;100953.25;;;7.79;100.00
65880;BME280;52661;51.364;6.054;2023-04-21T06:12:35;100956.78;;;7.83;100.00
65880;BME280;52661;51.364;6.054;2023-04-21T06:15:00;100953.84;;;7.91;100.00
65880;BME280;52661;51.364;6.054;2023-04-21T06:17:26;100957.66;;;7.90;100.00
65880;BME280;52661;51.364;6.054;2023-04-21T06:19:51;100959.28;;;7.95;100.00
65880;BME280;52661;51.364;6.054;2023-04-21T06:22:21;100963.63;;;8.03;100.00
65880;BME280;52661;51.364;6.054;2023-04-21T06:24:46;100959.84;;;8.08;100.00
65880;BME280;52661;51.364;6.054;2023-04-21T06:27:12;100954.13;;;8.13;100.00
65880;BME280;52661;51.364;6.054;2023-04-21T06:29:37;100958.84;;;8.19;100.00
65880;BME280;52661;51.364;6.054;2023-04-21T06:32:03;100951.97;;;8.25;100.00
65880;BME280;52661;51.364;6.054;2023-04-21T06:34:29;100957.38;;;8.25;100.00
65880;BME280;52661;51.364;6.054;2023-04-21T06:36:54;100951.25;;;8.28;100.00
65880;BME280;52661;51.364;6.054;2023-04-21T06:39:19;100952.56;;;8.38;100.00
65880;BME280;52661;51.364;6.054;2023-04-21T06:41:45;100953.34;;;8.38;100.00
65880;BME280;52661;51.364;6.054;2023-04-21T06:44:10;100963.34;;;8.34;100.00
65880;BME280;52661;51.364;6.054;2023-04-21T06:46:39;100967.47;;;8.28;100.00
65880;BME280;52661;51.364;6.054;2023-04-21T06:49:08;100964.50;;;8.37;100.00
65880;BME280;52661;51.364;6.054;2023-04-21T06:51:33;100956.88;;;8.43;100.00
65880;BME280;52661;51.364;6.054;2023-04-21T06:53:59;100963.28;;;8.61;100.00
65880;BME280;52661;51.364;6.054;2023-04-21T06:56:26;100957.13;;;8.64;100.00
65880;BME280;52661;51.364;6.054;2023-04-21T06:58:51;100957.91;;;8.64;100.00
65880;BME280;52661;51.364;6.054;2023-04-21T07:01:17;100963.06;;;8.76;100.00
65880;BME280;52661;51.364;6.054;2023-04-21T07:03:42;100966.16;;;8.75;100.00
65880;BME280;52661;51.364;6.054;2023-04-21T07:06:07;100971.19;;;8.76;100.00
65880;BME280;52661;51.364;6.054;2023-04-21T07:08:33;100967.44;;;8.88;100.00
65880;BME280;52661;51.364;6.054;2023-04-21T07:10:58;100957.47;;;8.96;100.00
65880;BME280;52661;51.364;6.054;2023-04-21T07:13:23;100951.34;;;9.02;100.00
65880;BME280;52661;51.364;6.054;2023-04-21T07:15:49;100949.44;;;9.03;100.00
65880;BME280;52661;51.364;6.054;2023-04-21T07:18:14;100945.94;;;9.02;100.00
65880;BME280;52661;51.364;6.054;2023-04-21T07:20:39;100945.16;;;9.02;100.00
65880;BME280;52661;51.364;6.054;2023-04-21T07:23:05;100942.91;;;9.07;100.00
65880;BME280;52661;51.364;6.054;2023-04-21T07:25:30;100945.31;;;9.19;100.00
65880;BME280;52661;51.364;6.054;2023-04-21T07:27:56;100946.56;;;9.25;100.00
65880;BME280;52661;51.364;6.054;2023-04-21T07:30:21;100947.38;;;9.29;100.00
65880;BME280;52661;51.364;6.054;2023-04-21T07:32:46;100945.88;;;9.35;100.00
65880;BME280;52661;51.364;6.054;2023-04-21T07:35:11;100944.03;;;9.47;100.00
65880;BME280;52661;51.364;6.054;2023-04-21T07:37:37;100945.19;;;9.49;100.00
65880;BME280;52661;51.364;6.054;2023-04-21T07:40:04;100950.69;;;9.60;100.00
65880;BME280;52661;51.364;6.054;2023-04-21T07:42:30;100940.66;;;9.64;100.00
65880;BME280;52661;51.364;6.054;2023-04-21T07:44:55;100941.13;;;9.69;100.00
65880;BME280;52661;51.364;6.054;2023-04-21T07:47:21;100942.22;;;9.65;100.00
65880;BME280;52661;51.364;6.054;2023-04-21T07:49:47;100949.63;;;9.71;100.00
65880;BME280;52661;51.364;6.054;2023-04-21T07:52:12;100951.38;;;10.01;100.00
65880;BME280;52661;51.364;6.054;2023-04-21T07:54:37;100952.53;;;10.03;100.00
65880;BME280;52661;51.364;6.054;2023-04-21T07:57:02;100959.53;;;10.04;100.00
65880;BME280;52661;51.364;6.054;2023-04-21T07:59:28;100955.81;;;10.26;100.00
65880;BME280;52661;51.364;6.054;2023-04-21T08:01:53;100964.25;;;10.14;100.00
65880;BME280;52661;51.364;6.054;2023-04-21T08:04:19;100961.22;;;10.23;100.00
65880;BME280;52661;51.364;6.054;2023-04-21T08:06:44;100950.84;;;10.43;100.00
65880;BME280;52661;51.364;6.054;2023-04-21T08:09:09;100953.53;;;10.39;100.00
65880;BME280;52661;51.364;6.054;2023-04-21T08:11:34;100954.69;;;10.34;100.00
65880;BME280;52661;51.364;6.054;2023-04-21T08:14:00;100954.72;;;10.38;100.00
65880;BME280;52661;51.364;6.054;2023-04-21T08:16:26;100952.81;;;10.53;100.00
65880;BME280;52661;51.364;6.054;2023-04-21T08:18:51;100951.31;;;10.62;100.00
65880;BME280;52661;51.364;6.054;2023-04-21T08:21:17;100943.97;;;10.66;100.00
65880;BME280;52661;51.364;6.054;2023-04-21T08:23:42;100939.63;;;10.48;100.00
65880;BME280;52661;51.364;6.054;2023-04-21T08:26:08;100950.88;;;10.53;100.00
65880;BME280;52661;51.364;6.054;2023-04-21T08:28:33;100948.91;;;10.43;100.00
65880;BME280;52661;51.364;6.054;2023-04-21T08:30:58;100945.13;;;10.72;100.00
65880;BME280;52661;51.364;6.054;2023-04-21T08:33:26;100947.09;;;10.79;100.00
65880;BME280;52661;51.364;6.054;2023-04-21T08:35:51;100951.00;;;10.81;100.00
65880;BME280;52661;51.364;6.054;2023-04-21T08:38:16;100949.38;;;10.56;100.00
65880;BME280;52661;51.364;6.054;2023-04-21T08:40:42;100954.03;;;10.66;100.00
65880;BME280;52661;51.364;6.054;2023-04-21T08:43:07;100940.84;;;10.64;100.00
65880;BME280;52661;51.364;6.054;2023-04-21T08:45:33;100952.47;;;10.58;100.00
65880;BME280;52661;51.364;6.054;2023-04-21T08:47:59;100945.13;;;10.69;100.00
65880;BME280;52661;51.364;6.054;2023-04-21T08:50:29;100940.53;;;10.87;100.00
65880;BME280;52661;51.364;6.054;2023-04-21T08:52:55;100941.31;;;10.95;100.00
65880;BME280;52661;51.364;6.054;2023-04-21T08:55:30;100945.59;;;10.99;100.00
65880;BME280;52661;51.364;6.054;2023-04-21T08:57:56;100946.34;;;11.00;100.00
65880;BME280;52661;51.364;6.054;2023-04-21T09:00:22;100939.81;;;11.22;100.00
65880;BME280;52661;51.364;6.054;2023-04-21T09:02:55;100944.06;;;11.02;100.00
65880;BME280;52661;51.364;6.054;2023-04-21T09:05:31;100943.69;;;11.07;100.00
65880;BME280;52661;51.364;6.054;2023-04-21T09:08:10;100944.88;;;11.30;100.00
65880;BME280;52661;51.364;6.054;2023-04-21T09:10:48;100940.19;;;11.13;100.00
65880;BME280;52661;51.364;6.054;2023-04-21T09:13:14;100941.34;;;11.19;100.00
65880;BME280;52661;51.364;6.054;2023-04-21T09:15:45;100939.44;;;11.45;100.00
65880;BME280;52661;51.364;6.054;2023-04-21T09:18:19;100949.13;;;11.60;100.00
65880;BME280;52661;51.364;6.054;2023-04-21T09:20:46;100939.84;;;11.57;100.00
65880;BME280;52661;51.364;6.054;2023-04-21T09:23:12;100951.44;;;11.29;100.00
65880;BME280;52661;51.364;6.054;2023-04-21T09:25:39;100947.94;;;11.18;100.00
65880;BME280;52661;51.364;6.054;2023-04-21T09:28:09;100951.88;;;11.39;100.00
65880;BME280;52661;51.364;6.054;2023-04-21T09:30:36;100954.94;;;11.58;100.00
65880;BME280;52661;51.364;6.054;2023-04-21T09:33:02;100958.84;;;11.68;100.00
65880;BME280;52661;51.364;6.054;2023-04-21T09:35:28;100955.34;;;11.67;100.00
65880;BME280;52661;51.364;6.054;2023-04-21T09:37:54;100956.94;;;11.75;100.00
65880;BME280;52661;51.364;6.054;2023-04-21T09:40:19;100957.69;;;11.94;100.00
65880;BME280;52661;51.364;6.054;2023-04-21T09:42:45;100941.34;;;11.62;100.00
65880;BME280;52661;51.364;6.054;2023-04-21T09:45:10;100947.22;;;11.85;100.00
65880;BME280;52661;51.364;6.054;2023-04-21T09:47:41;100940.94;;;11.99;100.00
65880;BME280;52661;51.364;6.054;2023-04-21T09:50:11;100927.25;;;12.30;100.00
65880;BME280;52661;51.364;6.054;2023-04-21T09:52:37;100936.09;;;12.52;100.00
65880;BME280;52661;51.364;6.054;2023-04-21T09:55:09;100931.03;;;12.61;100.00
65880;BME280;52661;51.364;6.054;2023-04-21T09:57:37;100934.00;;;12.81;100.00
65880;BME280;52661;51.364;6.054;2023-04-21T10:00:07;100938.25;;;12.89;100.00
65880;BME280;52661;51.364;6.054;2023-04-21T10:02:35;100930.53;;;12.77;100.00
65880;BME280;52661;51.364;6.054;2023-04-21T10:05:03;100929.69;;;12.94;100.00
65880;BME280;52661;51.364;6.054;2023-04-21T10:07:30;100939.75;;;13.01;100.00
65880;BME280;52661;51.364;6.054;2023-04-21T10:09:57;100937.94;;;12.80;100.00
65880;BME280;52661;51.364;6.054;2023-04-21T10:12:24;100935.06;;;13.01;100.00
65880;BME280;52661;51.364;6.054;2023-04-21T10:14:51;100928.69;;;13.25;100.00
65880;BME280;52661;51.364;6.054;2023-04-21T10:17:17;100927.28;;;13.55;100.00
65880;BME280;52661;51.364;6.054;2023-04-21T10:19:51;100929.59;;;13.60;100.00
65880;BME280;52661;51.364;6.054;2023-04-21T10:22:33;100930.94;;;13.38;100.00
65880;BME280;52661;51.364;6.054;2023-04-21T10:25:01;100918.59;;;13.22;100.00
65880;BME280;52661;51.364;6.054;2023-04-21T10:27:34;100914.16;;;12.88;100.00
65880;BME280;52661;51.364;6.054;2023-04-21T10:29:59;100903.66;;;12.86;100.00
65880;BME280;52661;51.364;6.054;2023-04-21T10:32:39;100909.44;;;12.92;100.00
65880;BME280;52661;51.364;6.054;2023-04-21T10:35:08;100911.28;;;13.12;100.00
65880;BME280;52661;51.364;6.054;2023-04-21T10:37:33;100903.38;;;13.25;100.00
65880;BME280;52661;51.364;6.054;2023-04-21T10:39:59;100897.47;;;13.37;100.00
65880;BME280;52661;51.364;6.054;2023-04-21T10:42:26;100892.59;;;13.59;100.00
65880;BME280;52661;51.364;6.054;2023-04-21T10:44:53;100881.31;;;13.53;100.00
65880;BME280;52661;51.364;6.054;2023-04-21T10:47:37;100880.03;;;13.27;100.00
65880;BME280;52661;51.364;6.054;2023-04-21T10:50:27;100871.50;;;13.63;100.00
65880;BME280;52661;51.364;6.054;2023-04-21T10:53:10;100875.16;;;13.87;100.00
65880;BME280;52661;51.364;6.054;2023-04-21T10:55:37;100880.69;;;13.79;100.00
65880;BME280;52661;51.364;6.054;2023-04-21T10:58:05;100869.34;;;13.85;100.00
65880;BME280;52661;51.364;6.054;2023-04-21T11:00:31;100873.50;;;13.96;100.00
65880;BME280;52661;51.364;6.054;2023-04-21T11:03:02;100865.81;;;13.84;100.00
65880;BME280;52661;51.364;6.054;2023-04-21T11:05:29;100853.09;;;14.04;100.00
65880;BME280;52661;51.364;6.054;2023-04-21T11:08:11;100852.59;;;13.82;100.00
65880;BME280;52661;51.364;6.054;2023-04-21T11:10:41;100842.72;;;13.58;100.00
65880;BME280;52661;51.364;6.054;2023-04-21T11:13:07;100847.81;;;13.90;100.00
65880;BME280;52661;51.364;6.054;2023-04-21T11:15:32;100839.63;;;14.24;100.00
65880;BME280;52661;51.364;6.054;2023-04-21T11:17:58;100839.19;;;14.56;100.00
65880;BME280;52661;51.364;6.054;2023-04-21T11:20:23;100821.88;;;14.93;100.00
65880;BME280;52661;51.364;6.054;2023-04-21T11:22:51;100831.75;;;14.83;100.00
65880;BME280;52661;51.364;6.054;2023-04-21T11:25:17;100828.16;;;14.90;100.00
65880;BME280;52661;51.364;6.054;2023-04-21T11:27:52;100822.09;;;14.21;100.00
65880;BME280;52661;51.364;6.054;2023-04-21T11:30:17;100815.66;;;13.74;100.00
65880;BME280;52661;51.364;6.054;2023-04-21T11:32:43;100812.75;;;13.55;100.00
65880;BME280;52661;51.364;6.054;2023-04-21T11:35:08;100811.25;;;14.14;100.00
65880;BME280;52661;51.364;6.054;2023-04-21T11:37:33;100811.22;;;14.75;100.00
65880;BME280;52661;51.364;6.054;2023-04-21T11:39:59;100805.22;;;14.84;100.00
65880;BME280;52661;51.364;6.054;2023-04-21T11:42:25;100801.97;;;14.65;100.00
65880;BME280;52661;51.364;6.054;2023-04-21T11:44:53;100784.84;;;14.65;100.00
65880;BME280;52661;51.364;6.054;2023-04-21T11:47:24;100793.09;;;14.35;100.00
65880;BME280;52661;51.364;6.054;2023-04-21T11:49:54;100798.91;;;14.06;100.00
65880;BME280;52661;51.364;6.054;2023-04-21T11:52:25;100790.44;;;14.81;100.00
65880;BME280;52661;51.364;6.054;2023-04-21T11:54:58;100795.19;;;15.00;100.00
65880;BME280;52661;51.364;6.054;2023-04-21T11:57:25;100792.94;;;15.38;100.00
65880;BME280;52661;51.364;6.054;2023-04-21T11:59:51;100783.22;;;15.14;100.00
65880;BME280;52661;51.364;6.054;2023-04-21T12:02:24;100781.09;;;15.25;100.00
65880;BME280;52661;51.364;6.054;2023-04-21T12:05:07;100765.53;;;15.42;100.00
65880;BME280;52661;51.364;6.054;2023-04-21T12:07:36;100756.41;;;15.52;100.00
65880;BME280;52661;51.364;6.054;2023-04-21T12:10:08;100768.09;;;15.52;100.00
65880;BME280;52661;51.364;6.054;2023-04-21T12:12:37;100752.78;;;15.74;100.00
65880;BME280;52661;51.364;6.054;2023-04-21T12:15:04;100748.72;;;15.83;100.00
65880;BME280;52661;51.364;6.054;2023-04-21T12:17:56;100755.16;;;15.92;100.00
65880;BME280;52661;51.364;6.054;2023-04-21T12:20:23;100746.91;;;16.12;100.00
65880;BME280;52661;51.364;6.054;2023-04-21T12:22:49;100745.22;;;16.18;100.00
65880;BME280;52661;51.364;6.054;2023-04-21T12:25:15;100741.78;;;15.78;100.00
65880;BME280;52661;51.364;6.054;2023-04-21T12:27:51;100740.63;;;15.95;100.00
65880;BME280;52661;51.364;6.054;2023-04-21T12:30:17;100733.16;;;16.15;100.00
65880;BME280;52661;51.364;6.054;2023-04-21T12:32:43;100733.22;;;16.28;100.00
65880;BME280;52661;51.364;6.054;2023-04-21T12:35:08;100728.44;;;15.80;100.00
65880;BME280;52661;51.364;6.054;2023-04-21T12:37:34;100725.97;;;15.46;100.00
65880;BME280;52661;51.364;6.054;2023-04-21T12:40:00;100719.69;;;16.05;100.00
65880;BME280;52661;51.364;6.054;2023-04-21T12:42:25;100726.66;;;16.42;100.00